Time;durP1;ratioP1;P1;durP2;ratioP2;P2;SDS_P1;SDS_P2;PMS_P1;PMS_P2;Temp;Humidity;BMP_temperature;BMP_pressure;BME280_temperature;BME280_humidity;BME280_pressure;Samples;Min_cycle;Max_cycle;Signal;HPM_P1;HPM_P2
2023/01/09 00:01:46;;;;;;;;;;;17.30;81.00;;;;;;10525466;28;20481;-25
2023/01/09 00:06:52;;;;;;;1.77;0.60;;;18.20;73.40;;;;;;10530223;28;19924;-25
2023/01/09 00:11:55;;;;;;;2.05;0.63;;;18.10;73.80;;;;;;10524562;28;20056;-25
2023/01/09 00:16:58;;;;;;;0.70;0.50;;;17.60;77.50;;;;;;10531846;28;20469;-24
2023/01/09 00:22:00;;;;;;;1.42;0.93;;;17.00;83.50;;;;;;10521787;28;20143;-28
2023/01/09 00:27:03;;;;;;;2.15;0.70;;;17.70;78.40;;;;;;10517359;28;20059;-26
2023/01/09 00:32:08;;;;;;;1.65;0.52;;;17.40;80.30;;;;;;10519258;28;20105;-25
2023/01/09 00:37:11;;;;;;;3.45;0.70;;;18.30;72.40;;;;;;10523792;28;20060;-25
2023/01/09 00:42:17;;;;;;;1.60;0.95;;;17.90;76.20;;;;;;10516007;28;20036;-27
2023/01/09 00:47:23;;;;;;;2.50;0.98;;;16.50;87.20;;;;;;10520188;28;20040;-25
2023/01/09 00:52:25;;;;;;;2.80;0.80;;;16.30;90.80;;;;;;10511668;28;20104;-29
2023/01/09 00:57:27;;;;;;;2.50;0.80;;;15.50;94.20;;;;;;10519727;28;20040;-24
2023/01/09 01:02:30;;;;;;;1.70;0.90;;;15.00;85.90;;;;;;10511944;28;20511;-23
2023/01/09 01:07:38;;;;;;;2.63;0.85;;;15.40;91.70;;;;;;10508038;28;20889;-24
2023/01/09 01:12:40;;;;;;;6.30;1.05;;;15.50;85.40;;;;;;10520482;28;20083;-24
2023/01/09 01:17:44;;;;;;;4.07;0.65;;;14.80;84.10;;;;;;10527007;28;20049;-24
2023/01/09 01:22:47;;;;;;;2.80;1.00;;;15.50;94.10;;;;;;10505617;28;20055;-25
2023/01/09 01:27:49;;;;;;;1.83;1.00;;;12.40;99.90;;;;;;10509615;28;20102;-24
2023/01/09 01:32:52;;;;;;;5.47;1.30;;;13.60;99.90;;;;;;10510269;28;20495;-24
2023/01/09 01:37:54;;;;;;;4.05;1.20;;;14.60;90.60;;;;;;10510016;28;20056;-24
2023/01/09 01:42:57;;;;;;;3.15;0.88;;;14.70;95.90;;;;;;10523609;28;20059;-24
2023/01/09 01:48:05;;;;;;;3.78;0.68;;;16.90;83.80;;;;;;10520376;28;20044;-25
2023/01/09 01:53:15;;;;;;;2.35;0.60;;;17.50;77.70;;;;;;10523020;28;20443;-23
2023/01/09 01:58:17;;;;;;;1.05;0.65;;;17.80;75.00;;;;;;10527731;28;20055;-24
2023/01/09 02:03:25;;;;;;;2.00;0.75;;;17.30;67.50;;;;;;10527987;28;20086;-25
2023/01/09 02:08:27;;;;;;;3.78;0.80;;;16.50;72.00;;;;;;10526152;28;20044;-25
2023/01/09 02:13:30;;;;;;;1.90;0.50;;;16.60;86.60;;;;;;10511947;28;20078;-24
2023/01/09 02:18:45;;;;;;;1.48;0.73;;;17.20;73.80;;;;;;10515754;28;20401;-23
2023/01/09 02:24:10;;;;;;;1.83;0.88;;;15.90;81.10;;;;;;10540131;28;20417;-22
2023/01/09 02:29:43;;;;;;;2.00;0.80;;;17.30;74.70;;;;;;10522569;28;20116;-24
2023/01/09 02:34:56;;;;;;;1.30;0.80;;;16.70;80.20;;;;;;10511625;28;20142;-27
2023/01/09 02:40:04;;;;;;;2.95;1.10;;;17.00;80.50;;;;;;10512929;28;20075;-25
2023/01/09 02:45:06;;;;;;;3.92;1.00;;;14.60;95.30;;;;;;10510038;28;20040;-25
2023/01/09 02:50:13;;;;;;;1.65;0.98;;;16.10;89.40;;;;;;10518235;28;20094;-25
2023/01/09 02:55:25;;;;;;;0.52;0.43;;;17.40;77.10;;;;;;10515584;28;20419;-25
2023/01/09 03:00:34;;;;;;;3.10;0.60;;;17.90;73.30;;;;;;10521805;28;20062;-24
2023/01/09 03:05:43;;;;;;;2.75;0.85;;;17.80;73.10;;;;;;10523550;28;20052;-24
2023/01/09 03:10:52;;;;;;;1.30;0.70;;;17.90;72.30;;;;;;10514437;28;20105;-24
2023/01/09 03:15:56;;;;;;;0.93;0.65;;;17.90;71.20;;;;;;10504849;28;20247;-25
2023/01/09 03:21:00;;;;;;;3.78;0.90;;;17.90;71.80;;;;;;10516003;28;20044;-25
2023/01/09 03:26:01;;;;;;;2.20;0.80;;;17.40;70.90;;;;;;10516494;28;20040;-22
2023/01/09 03:31:03;;;;;;;3.97;0.70;;;17.20;78.00;;;;;;10514999;28;20078;-24
2023/01/09 03:36:08;;;;;;;2.97;1.10;;;16.30;75.10;;;;;;10530345;28;20060;-24
2023/01/09 03:41:10;;;;;;;0.70;0.55;;;16.70;82.40;;;;;;10509747;28;21037;-24
2023/01/09 03:46:12;;;;;;;3.97;0.95;;;17.30;76.30;;;;;;10512667;28;20133;-25
2023/01/09 03:51:15;;;;;;;1.80;0.57;;;16.80;76.00;;;;;;10523600;28;20044;-26
2023/01/09 03:56:17;;;;;;;3.85;1.23;;;17.70;74.00;;;;;;10519655;28;20049;-24
2023/01/09 04:01:18;;;;;;;3.63;0.80;;;17.30;76.20;;;;;;10528912;28;20041;-23
2023/01/09 04:06:22;;;;;;;2.13;0.68;;;17.90;71.20;;;;;;10522706;28;20048;-25
2023/01/09 04:11:23;;;;;;;1.45;0.63;;;18.10;69.80;;;;;;10515899;28;20479;-25
2023/01/09 04:16:25;;;;;;;1.02;0.60;;;18.20;68.60;;;;;;10515222;28;20135;-25
2023/01/09 04:21:29;;;;;;;0.87;0.40;;;18.20;68.70;;;;;;10517427;28;20102;-25
2023/01/09 04:26:30;;;;;;;1.25;0.50;;;18.00;69.20;;;;;;10512418;28;20052;-26
2023/01/09 04:31:32;;;;;;;2.22;0.77;;;18.00;69.50;;;;;;10515737;28;20109;-24
2023/01/09 04:36:35;;;;;;;3.43;0.80;;;18.00;67.70;;;;;;10529628;28;20450;-25
2023/01/09 04:41:49;;;;;;;1.80;0.50;;;17.90;69.40;;;;;;10521754;28;20475;-24
2023/01/09 04:46:51;;;;;;;1.60;0.68;;;18.10;69.10;;;;;;10530153;28;20112;-26
2023/01/09 04:51:54;;;;;;;1.30;0.50;;;18.00;69.00;;;;;;10520872;28;20090;-24
2023/01/09 04:56:56;;;;;;;0.45;0.45;;;17.70;72.50;;;;;;10527606;28;20521;-24
2023/01/09 05:01:58;;;;;;;1.42;0.85;;;17.90;70.50;;;;;;10529324;28;20048;-24
2023/01/09 05:07:02;;;;;;;1.57;0.73;;;17.00;77.70;;;;;;10531534;28;20135;-25
2023/01/09 05:12:04;;;;;;;1.77;0.60;;;17.90;71.00;;;;;;10527121;28;20044;-24
2023/01/09 05:17:05;;;;;;;2.22;0.80;;;18.00;69.50;;;;;;10528252;28;20083;-25
2023/01/09 05:22:09;;;;;;;3.60;0.87;;;18.10;68.60;;;;;;10504557;28;20468;-25
2023/01/09 05:27:11;;;;;;;1.10;0.50;;;18.10;69.00;;;;;;10522825;28;20483;-25
2023/01/09 05:32:12;;;;;;;3.90;1.52;;;18.30;68.70;;;;;;10509162;28;20558;-25
2023/01/09 05:37:16;;;;;;;1.55;0.77;;;18.20;69.40;;;;;;10510892;28;20055;-25
2023/01/09 05:42:17;;;;;;;3.55;0.85;;;18.00;72.90;;;;;;10507434;28;20171;-25
2023/01/09 05:47:19;;;;;;;1.02;0.73;;;17.20;75.10;;;;;;10511111;28;20120;-24
2023/01/09 05:52:23;;;;;;;2.10;0.87;;;17.90;73.80;;;;;;10506054;28;20068;-25
2023/01/09 05:57:26;;;;;;;0.77;0.75;;;18.10;66.80;;;;;;10514541;28;20106;-24
2023/01/09 06:02:27;;;;;;;;;;;18.00;70.80;;;;;;10517495;28;20039;-24
2023/01/09 06:07:33;;;;;;;1.23;0.60;;;17.60;73.70;;;;;;10515056;28;20351;-24
2023/01/09 06:12:35;;;;;;;6.97;1.27;;;16.90;83.00;;;;;;10527633;28;20109;-29
2023/01/09 06:17:37;;;;;;;8.03;1.00;;;14.70;89.90;;;;;;10505055;28;20055;-25
2023/01/09 06:22:40;;;;;;;3.60;0.90;;;15.70;82.40;;;;;;10506555;28;20044;-25
2023/01/09 06:27:42;;;;;;;5.38;0.75;;;16.80;84.90;;;;;;10524508;28;20121;-24
2023/01/09 06:32:44;;;;;;;9.03;1.27;;;16.00;90.90;;;;;;10516622;28;20052;-25
2023/01/09 06:37:48;;;;;;;3.85;1.40;;;11.20;99.90;;;;;;10525129;28;20071;-24
2023/01/09 06:42:50;;;;;;;8.02;0.82;;;11.30;99.90;;;;;;10511227;28;20055;-25
2023/01/09 06:47:52;;;;;;;4.65;1.05;;;10.20;99.90;;;;;;10520267;28;20090;-27
2023/01/09 06:52:55;;;;;;;6.93;1.33;;;10.80;99.90;;;;;;10503327;28;20044;-25
2023/01/09 06:57:57;;;;;;;5.38;1.10;;;10.10;99.90;;;;;;10516338;28;20539;-26
2023/01/09 07:15:29;;;;;;;4.10;0.88;;;11.70;99.90;;;;;;10502206;27;20132;-23
2023/01/09 07:20:31;;;;;;;4.75;0.70;;;11.50;99.90;;;;;;10492281;28;20068;-24
2023/01/09 07:25:33;;;;;;;8.30;1.52;;;10.80;99.90;;;;;;10496713;28;20564;-23
2023/01/09 07:30:36;;;;;;;9.75;1.02;;;10.80;99.90;;;;;;10481733;28;20482;-24
2023/01/09 07:35:38;;;;;;;7.82;1.25;;;10.20;99.90;;;;;;10484227;28;20412;-26
2023/01/09 07:40:40;;;;;;;4.78;0.95;;;9.90;99.90;;;;;;10480299;28;20068;-30
2023/01/09 07:45:43;;;;;;;7.07;1.02;;;11.40;99.90;;;;;;10480914;28;20084;-24
2023/01/09 07:50:45;;;;;;;10.52;1.50;;;13.10;99.90;;;;;;10468476;28;20057;-24
2023/01/09 07:55:47;;;;;;;15.50;1.70;;;12.40;99.90;;;;;;10488904;28;20055;-24
2023/01/09 08:00:51;;;;;;;4.95;1.05;;;11.40;99.90;;;;;;10489463;28;20501;-24
2023/01/09 08:05:53;;;;;;;21.67;3.42;;;14.10;97.90;;;;;;10499286;28;20045;-23
2023/01/09 08:10:55;;;;;;;14.50;2.47;;;10.50;99.90;;;;;;10481415;28;20064;-25
2023/01/09 08:15:58;;;;;;;21.17;2.22;;;11.40;99.90;;;;;;10479722;28;20098;-24
2023/01/09 08:21:00;;;;;;;10.43;2.13;;;10.20;99.90;;;;;;10472878;28;20553;-29
2023/01/09 08:26:02;;;;;;;20.50;2.47;;;11.00;99.90;;;;;;10457920;28;20118;-25
2023/01/09 08:31:05;;;;;;;14.65;2.53;;;10.40;99.90;;;;;;10452647;28;20448;-25
2023/01/09 08:36:07;;;;;;;10.15;2.05;;;13.10;99.90;;;;;;10448704;28;20449;-26
2023/01/09 08:51:49;;;;;;;9.82;1.52;;;11.30;99.90;;;;;;10445842;28;20061;-30
2023/01/09 08:56:51;;;;;;;16.42;1.70;;;10.90;99.90;;;;;;10446171;28;20045;-26
2023/01/09 09:01:54;;;;;;;9.55;1.10;;;10.40;99.90;;;;;;10450239;28;20045;-25
2023/01/09 09:06:56;;;;;;;8.13;1.50;;;9.90;99.90;;;;;;10453667;28;20088;-25
2023/01/09 09:11:58;;;;;;;13.68;2.17;;;9.60;99.90;;;;;;10448884;28;20086;-25
2023/01/09 09:17:01;;;;;;;13.57;2.00;;;9.30;99.90;;;;;;10448979;28;20122;-25
2023/01/09 09:22:03;;;;;;;23.77;2.85;;;9.80;99.90;;;;;;10449199;28;20503;-25
2023/01/09 09:27:05;;;;;;;10.43;1.67;;;9.50;99.90;;;;;;10460351;28;20077;-25
2023/01/09 09:32:08;;;;;;;6.78;1.20;;;10.10;99.90;;;;;;10458929;28;20500;-25
2023/01/09 09:37:10;;;;;;;11.05;1.98;;;10.80;99.90;;;;;;10463642;28;20114;-26
2023/01/09 09:48:14;;;;;;;11.93;1.67;;;10.40;99.90;;;;;;10449782;28;20131;-24
2023/01/09 09:53:19;;;;;;;13.20;2.22;;;10.80;99.90;;;;;;10439029;28;20171;-25
2023/01/09 09:58:27;;;;;;;22.02;2.45;;;9.40;99.90;;;;;;10459360;28;20072;-24
2023/01/09 10:03:35;;;;;;;13.55;2.15;;;9.60;99.90;;;;;;10456173;28;20056;-24
2023/01/09 10:08:44;;;;;;;8.02;1.77;;;10.50;99.90;;;;;;10459819;28;20051;-24
2023/01/09 10:14:04;;;;;;;13.35;2.45;;;10.20;99.90;;;;;;10446875;28;20137;-24
2023/01/09 10:19:19;;;;;;;12.32;2.28;;;10.60;99.90;;;;;;10443378;28;20065;-24
2023/01/09 10:24:38;;;;;;;14.73;1.95;;;10.30;99.90;;;;;;10437707;28;20069;-21
2023/01/09 10:29:53;;;;;;;11.88;2.38;;;10.00;99.90;;;;;;10437288;28;20473;-24
2023/01/09 10:35:18;;;;;;;7.28;1.77;;;10.00;99.90;;;;;;10453690;28;20151;-27
2023/01/09 10:40:24;;;;;;;13.35;2.35;;;10.50;99.90;;;;;;10457530;28;20545;-24
2023/01/09 10:45:30;;;;;;;18.40;2.15;;;10.20;99.90;;;;;;10447225;28;20114;-24
2023/01/09 10:50:35;;;;;;;8.35;1.63;;;9.60;99.90;;;;;;10445359;28;20068;-25
2023/01/09 10:55:42;;;;;;;11.88;1.83;;;11.30;99.90;;;;;;10446226;28;20131;-24
2023/01/09 11:00:45;;;;;;;17.30;2.50;;;10.20;99.90;;;;;;10454538;28;20049;-24
2023/01/09 11:05:52;;;;;;;12.57;2.08;;;10.30;99.90;;;;;;10446682;28;20528;-25
2023/01/09 11:10:55;;;;;;;9.75;1.42;;;11.10;99.90;;;;;;10446253;28;20044;-25
2023/01/09 11:16:01;;;;;;;9.38;1.92;;;11.40;99.90;;;;;;10445701;28;20079;-25
2023/01/09 11:21:24;;;;;;;10.32;2.33;;;10.40;99.90;;;;;;10447598;28;20457;-25
2023/01/09 11:26:27;;;;;;;8.45;2.10;;;10.40;99.90;;;;;;10460961;28;20098;-26
2023/01/09 11:31:29;;;;;;;10.60;2.40;;;10.70;99.90;;;;;;10442873;28;20705;-25
2023/01/09 11:36:33;;;;;;;5.78;2.10;;;10.30;99.90;;;;;;10445048;28;20049;-26
2023/01/09 11:41:35;;;;;;;12.23;2.25;;;10.50;99.90;;;;;;10447436;28;20127;-25
2023/01/09 11:46:40;;;;;;;18.13;2.67;;;10.40;99.90;;;;;;10428491;28;20079;-25
2023/01/09 11:51:44;;;;;;;16.75;2.42;;;10.20;99.90;;;;;;10423679;28;20393;-25
2023/01/09 11:56:46;;;;;;;10.77;2.22;;;10.10;99.90;;;;;;10429540;28;20103;-25
2023/01/09 12:02:22;;;;;;;24.35;4.10;;;10.20;99.90;;;;;;10448498;28;20132;-28
2023/01/09 12:08:01;;;;;;;17.58;2.83;;;11.10;99.90;;;;;;10443651;28;20098;-24
2023/01/09 12:13:14;;;;;;;13.00;2.25;;;10.00;99.90;;;;;;10450987;28;20064;-25
2023/01/09 12:18:26;;;;;;;19.95;4.13;;;9.90;99.90;;;;;;10441832;28;20076;-24
2023/01/09 12:23:45;;;;;;;6.17;1.90;;;10.50;99.90;;;;;;10456687;28;20048;-24
2023/01/09 12:29:16;;;;;;;10.25;2.72;;;10.80;99.90;;;;;;10456319;28;20101;-24
2023/01/09 12:34:32;;;;;;;25.85;4.88;;;10.20;99.90;;;;;;10464722;28;20056;-26
2023/01/09 12:39:46;;;;;;;13.30;2.72;;;10.50;99.90;;;;;;10464643;28;20053;-24
2023/01/09 12:44:55;;;;;;;13.10;2.78;;;10.50;99.90;;;;;;10443712;28;20053;-25
2023/01/09 12:50:09;;;;;;;17.42;2.80;;;10.60;99.90;;;;;;10440461;28;20102;-25
2023/01/09 12:55:18;;;;;;;26.25;3.78;;;10.20;99.90;;;;;;10458087;28;20481;-27
2023/01/09 13:00:24;;;;;;;12.88;2.80;;;10.50;99.90;;;;;;10450213;28;20057;-23
2023/01/09 13:05:31;;;;;;;17.88;3.13;;;10.80;99.90;;;;;;10457075;28;20144;-24
2023/01/09 13:10:40;;;;;;;13.43;2.50;;;10.60;99.90;;;;;;10443870;28;20045;-24
2023/01/09 13:15:47;;;;;;;5.35;1.38;;;10.50;99.90;;;;;;10454064;28;20507;-25
2023/01/09 13:20:52;;;;;;;23.17;2.38;;;11.40;99.90;;;;;;10450876;28;20045;-24
2023/01/09 13:25:57;;;;;;;14.05;2.05;;;11.20;99.90;;;;;;10457212;28;20056;-26
2023/01/09 13:31:38;;;;;;;18.73;2.97;;;11.20;99.90;;;;;;10446897;28;20044;-25
2023/01/09 13:36:46;;;;;;;6.88;1.80;;;11.70;99.90;;;;;;10465178;28;20524;-24
2023/01/09 13:47:19;;;;;;;15.27;2.40;;;11.70;99.90;;;;;;10451130;28;20408;-23
2023/01/09 13:52:36;;;;;;;15.80;1.85;;;10.50;99.90;;;;;;10451633;28;20053;-25
2023/01/09 13:57:43;;;;;;;14.02;1.55;;;12.00;99.90;;;;;;10421167;28;20080;-24
2023/01/09 14:02:56;;;;;;;10.45;2.97;;;11.30;99.90;;;;;;10447351;28;20052;-26
2023/01/09 14:08:05;;;;;;;5.22;1.10;;;11.50;99.90;;;;;;10452492;28;20107;-27
2023/01/09 14:13:13;;;;;;;12.82;1.63;;;11.50;99.90;;;;;;10448015;28;20444;-25
2023/01/09 14:18:18;;;;;;;14.23;1.65;;;11.40;99.90;;;;;;10447106;28;20085;-24
2023/01/09 14:23:23;;;;;;;16.55;1.58;;;11.50;99.90;;;;;;10440107;28;20044;-30
2023/01/09 14:28:27;;;;;;;19.65;3.15;;;12.60;99.90;;;;;;10431842;28;20101;-27
2023/01/09 14:33:31;;;;;;;9.07;1.77;;;12.30;99.90;;;;;;10432855;28;20536;-24
2023/01/09 14:38:35;;;;;;;16.55;2.10;;;12.50;99.90;;;;;;10433565;28;20052;-25
2023/01/09 14:43:57;;;;;;;11.48;1.50;;;11.20;99.90;;;;;;10438967;28;20087;-24
2023/01/09 14:49:05;;;;;;;8.07;1.38;;;11.40;99.90;;;;;;10437694;28;20049;-24
2023/01/09 14:54:22;;;;;;;9.13;1.40;;;12.00;99.90;;;;;;10456940;28;20617;-25
2023/01/09 14:59:26;;;;;;;12.32;1.48;;;11.60;99.90;;;;;;10451563;28;20076;-24
2023/01/09 15:04:33;;;;;;;11.23;2.03;;;11.60;99.90;;;;;;10433665;28;20447;-24
2023/01/09 15:09:43;;;;;;;11.43;1.77;;;12.00;99.90;;;;;;10442980;28;20048;-26
2023/01/09 15:14:50;;;;;;;13.25;2.25;;;11.20;99.90;;;;;;10439906;28;20072;-24
2023/01/09 15:19:53;;;;;;;12.50;2.13;;;11.60;99.90;;;;;;10443029;28;20068;-25
2023/01/09 15:24:55;;;;;;;2.25;0.98;;;11.70;99.90;;;;;;10439556;28;20040;-25
2023/01/09 15:30:15;;;;;;;6.93;1.63;;;11.40;99.90;;;;;;10434955;28;20103;-25
2023/01/09 15:35:18;;;;;;;6.70;1.05;;;10.00;99.90;;;;;;10446731;28;20061;-25
2023/01/09 15:40:23;;;;;;;;;;;10.40;99.90;;;;;;10438832;28;20057;-26
2023/01/09 15:45:31;;;;;;;4.35;0.88;;;12.00;99.90;;;;;;10435773;28;19956;-25
2023/01/09 15:50:33;;;;;;;11.88;1.65;;;10.40;99.90;;;;;;10457289;28;20056;-26
2023/01/09 15:55:35;;;;;;;6.33;1.47;;;9.90;99.90;;;;;;10439173;28;20052;-27
2023/01/09 16:00:41;;;;;;;3.30;1.48;;;10.60;99.90;;;;;;10449302;28;20064;-24
2023/01/09 16:05:46;;;;;;;7.03;1.25;;;11.00;99.90;;;;;;10449407;28;20063;-25
2023/01/09 16:10:51;;;;;;;6.72;1.35;;;11.70;99.90;;;;;;10452351;28;20098;-24
2023/01/09 16:15:56;;;;;;;8.10;1.42;;;12.70;99.90;;;;;;10451965;28;20469;-26
2023/01/09 16:21:02;;;;;;;9.73;1.45;;;12.10;99.90;;;;;;10439313;28;20045;-25
2023/01/09 16:26:09;;;;;;;8.60;1.25;;;11.30;99.90;;;;;;10445927;28;20521;-24
2023/01/09 16:31:22;;;;;;;7.53;1.90;;;12.10;99.90;;;;;;10439292;28;20044;-25
2023/01/09 16:36:25;;;;;;;11.20;2.42;;;12.60;99.90;;;;;;10455877;28;20052;-25
2023/01/09 16:46:48;;;;;;;7.50;1.38;;;11.40;99.90;;;;;;10449504;28;20049;-27
2023/01/09 16:51:50;;;;;;;9.65;2.13;;;11.30;99.90;;;;;;10451385;28;20044;-24
2023/01/09 16:56:54;;;;;;;10.45;1.90;;;12.00;99.90;;;;;;10472725;28;20561;-25
2023/01/09 17:01:57;;;;;;;18.10;3.00;;;10.70;99.90;;;;;;10458056;28;20469;-27
2023/01/09 17:06:59;;;;;;;10.27;1.85;;;9.40;99.90;;;;;;10457987;28;20053;-25
2023/01/09 17:12:01;;;;;;;7.60;1.67;;;11.10;99.90;;;;;;10452719;28;20110;-24
2023/01/09 17:17:09;;;;;;;17.58;2.65;;;9.60;99.90;;;;;;10438569;28;20501;-26
2023/01/09 17:22:11;;;;;;;10.45;2.33;;;9.40;99.90;;;;;;10440959;28;20416;-25
2023/01/09 17:32:35;;;;;;;8.95;2.05;;;10.00;99.90;;;;;;10447260;28;20086;-25
2023/01/09 17:37:37;;;;;;;15.02;2.03;;;11.00;99.90;;;;;;10440674;28;20079;-25
2023/01/09 17:42:38;;;;;;;11.82;1.83;;;11.30;99.90;;;;;;10464349;28;20473;-23
2023/01/09 17:47:42;;;;;;;13.15;3.58;;;10.70;99.90;;;;;;10448014;28;20086;-26
2023/01/09 17:52:44;;;;;;;9.98;2.30;;;11.40;99.90;;;;;;10435225;28;20470;-24
2023/01/09 17:57:48;;;;;;;17.40;3.03;;;11.10;99.90;;;;;;10432437;28;20079;-26
2023/01/09 18:02:52;;;;;;;12.13;2.22;;;10.00;99.90;;;;;;10449920;28;20072;-29
2023/01/09 18:07:54;;;;;;;23.33;2.78;;;12.20;99.90;;;;;;10440222;28;20486;-25
2023/01/09 18:12:56;;;;;;;16.27;3.53;;;11.50;99.90;;;;;;10451860;28;20092;-28
2023/01/09 18:17:59;;;;;;;15.35;2.47;;;9.40;99.90;;;;;;10449670;28;20053;-25
2023/01/09 18:23:01;;;;;;;17.23;2.88;;;10.00;99.90;;;;;;10433562;28;20155;-25
2023/01/09 18:28:03;;;;;;;24.08;3.45;;;10.30;99.90;;;;;;10428997;28;20445;-25
2023/01/09 18:33:06;;;;;;;11.02;2.83;;;9.20;99.90;;;;;;10425055;28;20084;-25
2023/01/09 18:38:09;;;;;;;17.60;2.70;;;9.60;99.90;;;;;;10429419;28;20132;-25
2023/01/09 18:43:11;;;;;;;10.43;2.27;;;9.10;99.90;;;;;;10441870;28;20125;-24
2023/01/09 18:48:14;;;;;;;19.30;3.08;;;9.90;99.90;;;;;;10453316;28;20067;-25
2023/01/09 18:53:16;;;;;;;12.23;2.20;;;9.50;99.90;;;;;;10458567;28;20076;-26
2023/01/09 18:58:18;;;;;;;16.92;3.25;;;10.20;99.90;;;;;;10448736;28;20044;-25
2023/01/09 19:03:21;;;;;;;15.05;2.53;;;10.30;99.90;;;;;;10457266;28;20135;-25
2023/01/09 19:08:23;;;;;;;14.65;2.35;;;10.20;99.90;;;;;;10435097;28;20041;-24
2023/01/09 19:13:28;;;;;;;16.40;3.17;;;9.60;99.90;;;;;;10436720;28;20052;-24
2023/01/09 19:18:33;;;;;;;27.00;3.17;;;9.70;99.90;;;;;;10445937;28;20060;-25
2023/01/09 19:23:35;;;;;;;25.20;2.80;;;9.20;99.90;;;;;;10448968;28;20045;-25
2023/01/09 19:28:43;;;;;;;6.07;1.95;;;9.40;99.90;;;;;;10459456;28;20049;-25
2023/01/09 19:33:47;;;;;;;15.70;2.45;;;10.10;99.90;;;;;;10442692;28;20053;-24
2023/01/09 19:38:48;;;;;;;19.95;3.25;;;11.00;99.90;;;;;;10429565;28;20122;-25
2023/01/09 19:43:51;;;;;;;14.52;2.30;;;9.80;99.90;;;;;;10440788;28;20057;-25
2023/01/09 19:48:57;;;;;;;16.23;2.30;;;10.20;99.90;;;;;;10435303;28;20150;-28
2023/01/09 19:54:00;;;;;;;10.23;2.13;;;10.10;97.90;;;;;;10428056;28;20072;-24
2023/01/09 19:59:02;;;;;;;;;;;10.50;99.90;;;;;;10437205;28;20565;-25
2023/01/09 20:04:12;;;;;;;13.13;2.10;;;10.30;99.90;;;;;;10443704;28;19952;-23
2023/01/09 20:09:15;;;;;;;11.07;2.67;;;11.30;99.90;;;;;;10437950;28;20448;-26
2023/01/09 20:14:19;;;;;;;10.07;2.00;;;11.00;99.90;;;;;;10443249;28;20152;-25
2023/01/09 20:19:23;;;;;;;16.33;2.30;;;11.00;95.60;;;;;;10441354;28;20132;-26
2023/01/09 20:24:24;;;;;;;18.33;3.30;;;10.40;97.40;;;;;;10452175;28;20052;-25
2023/01/09 20:29:27;;;;;;;12.00;2.23;;;10.50;99.90;;;;;;10445776;28;20047;-24
2023/01/09 20:34:30;;;;;;;15.05;3.45;;;12.00;99.90;;;;;;10443716;28;20447;-28
2023/01/09 20:39:32;;;;;;;14.63;1.90;;;10.20;99.90;;;;;;10444064;28;20473;-27
2023/01/09 20:44:34;;;;;;;29.15;5.50;;;11.70;95.20;;;;;;10441515;28;20065;-25
2023/01/09 20:49:37;;;;;;;18.60;2.50;;;10.30;99.90;;;;;;10432900;28;20508;-25
2023/01/09 20:54:40;;;;;;;15.05;2.42;;;10.30;99.90;;;;;;10444988;28;20643;-24
2023/01/09 20:59:42;;;;;;;;;;;10.80;99.90;;;;;;10453394;28;20140;-24
2023/01/09 21:04:45;;;;;;;18.23;2.75;;;11.50;99.90;;;;;;10439952;28;19963;-24
2023/01/09 21:09:47;;;;;;;25.75;2.85;;;10.90;99.90;;;;;;10441406;28;20518;-25
2023/01/09 21:14:49;;;;;;;14.40;2.40;;;11.00;96.40;;;;;;10438709;28;20256;-24
2023/01/09 21:19:52;;;;;;;18.40;2.67;;;9.90;99.90;;;;;;10428522;28;20452;-27
2023/01/09 21:24:54;;;;;;;17.15;2.03;;;11.20;99.90;;;;;;10437228;28;20041;-26
2023/01/09 21:29:56;;;;;;;10.70;2.25;;;10.60;99.90;;;;;;10439229;28;20049;-25
2023/01/09 21:35:03;;;;;;;16.50;2.17;;;11.30;99.90;;;;;;10432786;28;20049;-24
2023/01/09 21:40:07;;;;;;;11.40;2.25;;;10.30;99.90;;;;;;10438224;28;20481;-28
2023/01/09 21:50:34;;;;;;;12.00;2.53;;;9.80;99.90;;;;;;10433266;28;20049;-24
2023/01/09 21:55:36;;;;;;;10.07;2.33;;;11.30;99.90;;;;;;10441274;28;20803;-24
2023/01/09 22:00:39;;;;;;;12.27;2.10;;;11.40;99.90;;;;;;10449289;28;20053;-26
2023/01/09 22:05:43;;;;;;;17.90;2.10;;;12.90;91.70;;;;;;10443060;28;20049;-25
2023/01/09 22:10:44;;;;;;;23.70;3.70;;;12.50;99.90;;;;;;10450442;28;20086;-25
2023/01/09 22:15:47;;;;;;;16.60;2.38;;;9.30;99.90;;;;;;10441274;28;20049;-26
2023/01/09 22:20:50;;;;;;;19.70;3.17;;;9.00;99.90;;;;;;10435867;28;20045;-25
2023/01/09 22:25:53;;;;;;;19.67;3.78;;;8.60;99.90;;;;;;10436461;28;20122;-25
2023/01/09 22:30:55;;;;;;;13.23;2.17;;;8.40;99.90;;;;;;10443628;28;20127;-26
2023/01/09 22:36:05;;;;;;;24.73;3.25;;;8.10;99.90;;;;;;10446005;28;20543;-22
2023/01/09 22:41:07;;;;;;;11.98;2.42;;;8.20;99.90;;;;;;10442514;28;20088;-27
2023/01/09 22:46:09;;;;;;;16.38;2.67;;;10.40;99.90;;;;;;10425523;28;20132;-25
2023/01/09 22:51:14;;;;;;;17.48;2.88;;;9.80;99.90;;;;;;10447387;28;20045;-24
2023/01/09 22:56:18;;;;;;;17.08;3.83;;;10.30;99.90;;;;;;10442751;28;20128;-26
2023/01/09 23:01:21;;;;;;;20.23;3.28;;;11.60;99.90;;;;;;10450686;28;20041;-27
2023/01/09 23:06:25;;;;;;;25.92;3.17;;;9.30;99.90;;;;;;10433981;28;20083;-27
2023/01/09 23:16:49;;;;;;;28.60;4.03;;;9.30;99.90;;;;;;10442041;28;20083;-23
2023/01/09 23:21:52;;;;;;;17.63;2.22;;;9.70;99.90;;;;;;10443182;28;20115;-25
2023/01/09 23:26:55;;;;;;;17.35;2.35;;;9.40;99.90;;;;;;10443604;28;20160;-27
2023/01/09 23:31:57;;;;;;;12.40;2.08;;;8.80;99.90;;;;;;10457796;28;20366;-26
2023/01/09 23:37:02;;;;;;;9.63;2.20;;;9.10;99.90;;;;;;10437717;28;20049;-25
2023/01/09 23:47:23;;;;;;;15.68;2.47;;;10.50;99.90;;;;;;10435408;28;20054;-24
2023/01/09 23:52:26;;;;;;;18.45;2.30;;;9.60;99.90;;;;;;10461519;28;20053;-25
2023/01/09 23:57:28;;;;;;;23.70;3.03;;;9.70;99.90;;;;;;10442513;28;20052;-23
